sensor_id;sensor_type;location;lat;lon;timestamp;P1;durP1;ratioP1;P2;durP2;ratioP2
64487;SDS011;50864;45.050;39.014;2023-04-16T00:02:16;12.88;;;8.35;;
64487;SDS011;50864;45.050;39.014;2023-04-16T00:04:42;13.85;;;9.00;;
64487;SDS011;50864;45.050;39.014;2023-04-16T00:07:08;9.15;;;5.78;;
64487;SDS011;50864;45.050;39.014;2023-04-16T00:09:33;9.80;;;6.30;;
64487;SDS011;50864;45.050;39.014;2023-04-16T00:11:59;11.50;;;6.82;;
64487;SDS011;50864;45.050;39.014;2023-04-16T00:14:25;11.25;;;7.40;;
64487;SDS011;50864;45.050;39.014;2023-04-16T00:16:51;10.95;;;6.53;;
64487;SDS011;50864;45.050;39.014;2023-04-16T00:19:17;12.73;;;9.18;;
64487;SDS011;50864;45.050;39.014;2023-04-16T00:21:43;10.48;;;7.68;;
64487;SDS011;50864;45.050;39.014;2023-04-16T00:24:09;10.80;;;6.75;;
64487;SDS011;50864;45.050;39.014;2023-04-16T00:26:35;14.15;;;9.23;;
64487;SDS011;50864;45.050;39.014;2023-04-16T00:29:01;11.75;;;7.35;;
64487;SDS011;50864;45.050;39.014;2023-04-16T00:31:27;12.13;;;7.30;;
64487;SDS011;50864;45.050;39.014;2023-04-16T00:33:54;13.62;;;9.13;;
64487;SDS011;50864;45.050;39.014;2023-04-16T00:36:21;12.43;;;8.70;;
64487;SDS011;50864;45.050;39.014;2023-04-16T00:38:47;12.55;;;8.48;;
64487;SDS011;50864;45.050;39.014;2023-04-16T00:41:13;10.55;;;7.32;;
64487;SDS011;50864;45.050;39.014;2023-04-16T00:43:40;10.10;;;6.70;;
64487;SDS011;50864;45.050;39.014;2023-04-16T00:46:06;10.85;;;6.62;;
64487;SDS011;50864;45.050;39.014;2023-04-16T00:48:33;12.07;;;6.35;;
64487;SDS011;50864;45.050;39.014;2023-04-16T00:50:59;10.32;;;5.50;;
64487;SDS011;50864;45.050;39.014;2023-04-16T00:53:26;11.48;;;6.55;;
64487;SDS011;50864;45.050;39.014;2023-04-16T00:55:52;12.15;;;6.80;;
64487;SDS011;50864;45.050;39.014;2023-04-16T00:58:18;12.52;;;8.50;;
64487;SDS011;50864;45.050;39.014;2023-04-16T01:00:43;9.65;;;7.00;;
64487;SDS011;50864;45.050;39.014;2023-04-16T01:03:10;10.27;;;7.37;;
64487;SDS011;50864;45.050;39.014;2023-04-16T01:05:35;11.65;;;6.85;;
64487;SDS011;50864;45.050;39.014;2023-04-16T01:08:01;10.90;;;5.90;;
64487;SDS011;50864;45.050;39.014;2023-04-16T01:10:27;11.68;;;8.00;;
64487;SDS011;50864;45.050;39.014;2023-04-16T01:12:53;10.35;;;6.72;;
64487;SDS011;50864;45.050;39.014;2023-04-16T01:15:18;11.27;;;7.32;;
64487;SDS011;50864;45.050;39.014;2023-04-16T01:17:44;11.88;;;6.28;;
64487;SDS011;50864;45.050;39.014;2023-04-16T01:20:10;7.75;;;4.50;;
64487;SDS011;50864;45.050;39.014;2023-04-16T01:22:36;11.38;;;7.78;;
64487;SDS011;50864;45.050;39.014;2023-04-16T01:25:02;11.98;;;7.07;;
64487;SDS011;50864;45.050;39.014;2023-04-16T01:27:28;14.45;;;10.10;;
64487;SDS011;50864;45.050;39.014;2023-04-16T01:29:54;10.98;;;6.30;;
64487;SDS011;50864;45.050;39.014;2023-04-16T01:32:21;14.50;;;6.70;;
64487;SDS011;50864;45.050;39.014;2023-04-16T01:34:47;11.48;;;6.12;;
64487;SDS011;50864;45.050;39.014;2023-04-16T01:37:12;10.18;;;6.35;;
64487;SDS011;50864;45.050;39.014;2023-04-16T01:39:38;11.60;;;7.22;;
64487;SDS011;50864;45.050;39.014;2023-04-16T01:42:04;14.52;;;8.70;;
64487;SDS011;50864;45.050;39.014;2023-04-16T01:44:30;12.32;;;8.18;;
64487;SDS011;50864;45.050;39.014;2023-04-16T01:46:56;12.90;;;6.87;;
64487;SDS011;50864;45.050;39.014;2023-04-16T01:49:22;9.82;;;5.45;;
64487;SDS011;50864;45.050;39.014;2023-04-16T01:51:47;12.02;;;8.00;;
64487;SDS011;50864;45.050;39.014;2023-04-16T01:54:13;13.48;;;7.57;;
64487;SDS011;50864;45.050;39.014;2023-04-16T01:56:39;13.00;;;7.75;;
64487;SDS011;50864;45.050;39.014;2023-04-16T01:59:05;11.12;;;5.95;;
64487;SDS011;50864;45.050;39.014;2023-04-16T02:01:31;11.93;;;6.32;;
64487;SDS011;50864;45.050;39.014;2023-04-16T02:03:58;10.75;;;5.00;;
64487;SDS011;50864;45.050;39.014;2023-04-16T02:06:23;13.35;;;9.10;;
64487;SDS011;50864;45.050;39.014;2023-04-16T02:08:49;14.38;;;8.70;;
64487;SDS011;50864;45.050;39.014;2023-04-16T02:11:15;12.85;;;9.05;;
64487;SDS011;50864;45.050;39.014;2023-04-16T02:13:41;14.13;;;7.70;;
64487;SDS011;50864;45.050;39.014;2023-04-16T02:16:07;13.20;;;8.57;;
64487;SDS011;50864;45.050;39.014;2023-04-16T02:18:34;9.93;;;5.55;;
64487;SDS011;50864;45.050;39.014;2023-04-16T02:21:00;10.48;;;7.15;;
64487;SDS011;50864;45.050;39.014;2023-04-16T02:23:26;13.70;;;7.78;;
64487;SDS011;50864;45.050;39.014;2023-04-16T02:25:53;15.50;;;9.05;;
64487;SDS011;50864;45.050;39.014;2023-04-16T02:28:19;12.13;;;7.82;;
64487;SDS011;50864;45.050;39.014;2023-04-16T02:30:45;11.40;;;7.20;;
64487;SDS011;50864;45.050;39.014;2023-04-16T02:33:11;13.20;;;7.03;;
64487;SDS011;50864;45.050;39.014;2023-04-16T02:35:38;11.70;;;7.32;;
64487;SDS011;50864;45.050;39.014;2023-04-16T02:38:04;8.52;;;5.28;;
64487;SDS011;50864;45.050;39.014;2023-04-16T02:40:30;11.68;;;6.97;;
64487;SDS011;50864;45.050;39.014;2023-04-16T02:42:56;15.85;;;10.85;;
64487;SDS011;50864;45.050;39.014;2023-04-16T02:45:22;10.73;;;7.43;;
64487;SDS011;50864;45.050;39.014;2023-04-16T02:47:48;10.40;;;6.55;;
64487;SDS011;50864;45.050;39.014;2023-04-16T02:50:15;14.55;;;7.32;;
64487;SDS011;50864;45.050;39.014;2023-04-16T02:52:41;11.82;;;8.07;;
64487;SDS011;50864;45.050;39.014;2023-04-16T02:55:06;11.45;;;7.87;;
64487;SDS011;50864;45.050;39.014;2023-04-16T02:57:33;11.32;;;6.57;;
64487;SDS011;50864;45.050;39.014;2023-04-16T02:59:58;13.30;;;7.80;;
64487;SDS011;50864;45.050;39.014;2023-04-16T03:02:24;12.52;;;7.50;;
64487;SDS011;50864;45.050;39.014;2023-04-16T03:04:52;15.55;;;11.15;;
64487;SDS011;50864;45.050;39.014;2023-04-16T03:07:18;13.65;;;7.90;;
64487;SDS011;50864;45.050;39.014;2023-04-16T03:09:43;14.02;;;9.23;;
64487;SDS011;50864;45.050;39.014;2023-04-16T03:12:09;10.45;;;6.62;;
64487;SDS011;50864;45.050;39.014;2023-04-16T03:14:35;12.40;;;7.53;;
64487;SDS011;50864;45.050;39.014;2023-04-16T03:17:01;16.27;;;8.65;;
64487;SDS011;50864;45.050;39.014;2023-04-16T03:19:27;13.60;;;8.10;;
64487;SDS011;50864;45.050;39.014;2023-04-16T03:21:52;9.73;;;7.12;;
64487;SDS011;50864;45.050;39.014;2023-04-16T03:24:18;16.15;;;8.38;;
64487;SDS011;50864;45.050;39.014;2023-04-16T03:26:47;12.52;;;7.80;;
64487;SDS011;50864;45.050;39.014;2023-04-16T03:29:24;14.82;;;7.95;;
64487;SDS011;50864;45.050;39.014;2023-04-16T03:31:52;11.50;;;7.45;;
64487;SDS011;50864;45.050;39.014;2023-04-16T03:34:19;12.40;;;7.97;;
64487;SDS011;50864;45.050;39.014;2023-04-16T03:36:45;10.82;;;7.70;;
64487;SDS011;50864;45.050;39.014;2023-04-16T03:39:11;9.77;;;6.70;;
64487;SDS011;50864;45.050;39.014;2023-04-16T03:41:37;11.00;;;7.15;;
64487;SDS011;50864;45.050;39.014;2023-04-16T03:44:03;12.48;;;7.18;;
64487;SDS011;50864;45.050;39.014;2023-04-16T03:46:31;13.15;;;8.35;;
64487;SDS011;50864;45.050;39.014;2023-04-16T03:48:57;13.02;;;7.90;;
64487;SDS011;50864;45.050;39.014;2023-04-16T03:51:23;13.65;;;8.27;;
64487;SDS011;50864;45.050;39.014;2023-04-16T03:53:50;8.40;;;5.22;;
64487;SDS011;50864;45.050;39.014;2023-04-16T03:56:17;12.63;;;7.57;;
64487;SDS011;50864;45.050;39.014;2023-04-16T03:58:43;12.82;;;8.82;;
64487;SDS011;50864;45.050;39.014;2023-04-16T04:01:09;11.43;;;7.82;;
64487;SDS011;50864;45.050;39.014;2023-04-16T04:03:35;11.07;;;6.43;;
64487;SDS011;50864;45.050;39.014;2023-04-16T04:06:00;11.43;;;6.68;;
64487;SDS011;50864;45.050;39.014;2023-04-16T04:08:26;13.80;;;7.22;;
64487;SDS011;50864;45.050;39.014;2023-04-16T04:10:52;10.77;;;7.10;;
64487;SDS011;50864;45.050;39.014;2023-04-16T04:13:18;10.18;;;6.45;;
64487;SDS011;50864;45.050;39.014;2023-04-16T04:15:44;12.00;;;6.40;;
64487;SDS011;50864;45.050;39.014;2023-04-16T04:18:10;11.95;;;8.43;;
64487;SDS011;50864;45.050;39.014;2023-04-16T04:20:39;11.45;;;6.25;;
64487;SDS011;50864;45.050;39.014;2023-04-16T04:23:05;16.00;;;9.40;;
64487;SDS011;50864;45.050;39.014;2023-04-16T04:25:31;14.73;;;9.05;;
64487;SDS011;50864;45.050;39.014;2023-04-16T04:27:57;10.00;;;6.53;;
64487;SDS011;50864;45.050;39.014;2023-04-16T04:30:22;11.57;;;7.05;;
64487;SDS011;50864;45.050;39.014;2023-04-16T04:32:48;14.07;;;7.78;;
64487;SDS011;50864;45.050;39.014;2023-04-16T04:35:14;10.55;;;6.80;;
64487;SDS011;50864;45.050;39.014;2023-04-16T04:37:40;11.25;;;7.22;;
64487;SDS011;50864;45.050;39.014;2023-04-16T04:40:07;13.52;;;7.15;;
64487;SDS011;50864;45.050;39.014;2023-04-16T04:42:35;13.50;;;6.90;;
64487;SDS011;50864;45.050;39.014;2023-04-16T04:45:01;10.93;;;6.75;;
64487;SDS011;50864;45.050;39.014;2023-04-16T04:47:27;11.12;;;6.40;;
64487;SDS011;50864;45.050;39.014;2023-04-16T04:49:53;12.27;;;6.03;;
64487;SDS011;50864;45.050;39.014;2023-04-16T04:52:19;11.85;;;6.53;;
64487;SDS011;50864;45.050;39.014;2023-04-16T04:54:45;12.07;;;7.05;;
64487;SDS011;50864;45.050;39.014;2023-04-16T04:57:11;9.82;;;6.75;;
64487;SDS011;50864;45.050;39.014;2023-04-16T04:59:38;11.98;;;6.32;;
64487;SDS011;50864;45.050;39.014;2023-04-16T05:02:05;9.80;;;5.78;;
64487;SDS011;50864;45.050;39.014;2023-04-16T05:04:31;13.98;;;8.27;;
64487;SDS011;50864;45.050;39.014;2023-04-16T05:06:56;10.23;;;7.07;;
64487;SDS011;50864;45.050;39.014;2023-04-16T05:09:22;9.45;;;5.82;;
64487;SDS011;50864;45.050;39.014;2023-04-16T05:11:48;11.57;;;7.15;;
64487;SDS011;50864;45.050;39.014;2023-04-16T05:14:14;11.40;;;6.53;;
64487;SDS011;50864;45.050;39.014;2023-04-16T05:16:39;12.02;;;6.60;;
64487;SDS011;50864;45.050;39.014;2023-04-16T05:19:05;10.23;;;6.75;;
64487;SDS011;50864;45.050;39.014;2023-04-16T05:21:31;12.15;;;7.40;;
64487;SDS011;50864;45.050;39.014;2023-04-16T05:23:57;10.05;;;5.60;;
64487;SDS011;50864;45.050;39.014;2023-04-16T05:26:23;10.15;;;6.78;;
64487;SDS011;50864;45.050;39.014;2023-04-16T05:28:48;13.50;;;6.60;;
64487;SDS011;50864;45.050;39.014;2023-04-16T05:31:14;9.07;;;5.47;;
64487;SDS011;50864;45.050;39.014;2023-04-16T05:33:40;12.48;;;7.43;;
64487;SDS011;50864;45.050;39.014;2023-04-16T05:36:06;10.73;;;6.35;;
64487;SDS011;50864;45.050;39.014;2023-04-16T05:38:32;8.63;;;5.22;;
64487;SDS011;50864;45.050;39.014;2023-04-16T05:41:04;7.75;;;4.97;;
64487;SDS011;50864;45.050;39.014;2023-04-16T05:43:52;7.37;;;4.40;;
64487;SDS011;50864;45.050;39.014;2023-04-16T05:46:18;9.65;;;6.07;;
64487;SDS011;50864;45.050;39.014;2023-04-16T05:48:43;7.65;;;5.12;;
64487;SDS011;50864;45.050;39.014;2023-04-16T05:51:09;8.75;;;4.82;;
64487;SDS011;50864;45.050;39.014;2023-04-16T05:53:35;9.05;;;5.62;;
64487;SDS011;50864;45.050;39.014;2023-04-16T05:56:00;10.07;;;4.70;;
64487;SDS011;50864;45.050;39.014;2023-04-16T05:58:26;9.02;;;5.57;;
64487;SDS011;50864;45.050;39.014;2023-04-16T06:00:52;8.80;;;5.37;;
64487;SDS011;50864;45.050;39.014;2023-04-16T06:03:18;9.57;;;5.28;;
64487;SDS011;50864;45.050;39.014;2023-04-16T06:05:44;7.45;;;5.10;;
64487;SDS011;50864;45.050;39.014;2023-04-16T06:08:10;7.50;;;4.50;;
64487;SDS011;50864;45.050;39.014;2023-04-16T06:10:36;5.93;;;3.17;;
64487;SDS011;50864;45.050;39.014;2023-04-16T06:13:02;9.43;;;4.37;;
64487;SDS011;50864;45.050;39.014;2023-04-16T06:15:27;6.10;;;3.87;;
64487;SDS011;50864;45.050;39.014;2023-04-16T06:17:54;6.40;;;4.55;;
64487;SDS011;50864;45.050;39.014;2023-04-16T06:20:20;9.82;;;4.80;;
64487;SDS011;50864;45.050;39.014;2023-04-16T06:22:45;10.35;;;5.60;;
64487;SDS011;50864;45.050;39.014;2023-04-16T06:25:11;8.82;;;4.70;;
64487;SDS011;50864;45.050;39.014;2023-04-16T06:27:37;9.10;;;4.80;;
64487;SDS011;50864;45.050;39.014;2023-04-16T06:30:03;8.75;;;4.65;;
64487;SDS011;50864;45.050;39.014;2023-04-16T06:32:29;7.62;;;4.47;;
64487;SDS011;50864;45.050;39.014;2023-04-16T06:34:55;8.88;;;4.50;;
64487;SDS011;50864;45.050;39.014;2023-04-16T06:37:22;7.97;;;4.75;;
64487;SDS011;50864;45.050;39.014;2023-04-16T06:39:48;7.62;;;4.62;;
64487;SDS011;50864;45.050;39.014;2023-04-16T06:42:14;6.62;;;4.35;;
64487;SDS011;50864;45.050;39.014;2023-04-16T06:44:40;7.60;;;4.90;;
64487;SDS011;50864;45.050;39.014;2023-04-16T06:47:06;7.20;;;5.03;;
64487;SDS011;50864;45.050;39.014;2023-04-16T06:49:32;9.38;;;5.50;;
64487;SDS011;50864;45.050;39.014;2023-04-16T06:51:57;10.25;;;6.37;;
64487;SDS011;50864;45.050;39.014;2023-04-16T06:54:23;8.05;;;3.22;;
64487;SDS011;50864;45.050;39.014;2023-04-16T06:56:49;9.40;;;5.55;;
64487;SDS011;50864;45.050;39.014;2023-04-16T06:59:15;7.97;;;4.53;;
64487;SDS011;50864;45.050;39.014;2023-04-16T07:01:41;8.18;;;4.93;;
64487;SDS011;50864;45.050;39.014;2023-04-16T07:04:07;10.23;;;4.78;;
64487;SDS011;50864;45.050;39.014;2023-04-16T07:06:33;7.22;;;4.62;;
64487;SDS011;50864;45.050;39.014;2023-04-16T07:08:59;7.87;;;4.72;;
64487;SDS011;50864;45.050;39.014;2023-04-16T07:14:07;10.27;;;6.25;;
64487;SDS011;50864;45.050;39.014;2023-04-16T07:17:05;9.15;;;4.55;;
64487;SDS011;50864;45.050;39.014;2023-04-16T07:19:31;11.50;;;4.70;;
64487;SDS011;50864;45.050;39.014;2023-04-16T07:21:57;11.12;;;5.55;;
64487;SDS011;50864;45.050;39.014;2023-04-16T07:24:23;8.82;;;5.62;;
64487;SDS011;50864;45.050;39.014;2023-04-16T07:26:49;9.85;;;4.78;;
64487;SDS011;50864;45.050;39.014;2023-04-16T07:29:15;7.25;;;3.92;;
64487;SDS011;50864;45.050;39.014;2023-04-16T07:31:40;9.30;;;4.85;;
64487;SDS011;50864;45.050;39.014;2023-04-16T07:34:06;7.30;;;4.10;;
64487;SDS011;50864;45.050;39.014;2023-04-16T07:36:32;9.35;;;3.72;;
64487;SDS011;50864;45.050;39.014;2023-04-16T07:38:58;9.55;;;4.40;;
64487;SDS011;50864;45.050;39.014;2023-04-16T07:41:24;6.70;;;3.87;;
64487;SDS011;50864;45.050;39.014;2023-04-16T07:43:49;9.45;;;4.35;;
64487;SDS011;50864;45.050;39.014;2023-04-16T07:46:15;9.05;;;5.62;;
64487;SDS011;50864;45.050;39.014;2023-04-16T07:48:42;10.77;;;6.07;;
64487;SDS011;50864;45.050;39.014;2023-04-16T07:51:08;13.02;;;6.60;;
64487;SDS011;50864;45.050;39.014;2023-04-16T07:53:33;10.00;;;5.32;;
64487;SDS011;50864;45.050;39.014;2023-04-16T07:55:59;9.70;;;5.22;;
64487;SDS011;50864;45.050;39.014;2023-04-16T07:58:25;9.00;;;5.30;;
64487;SDS011;50864;45.050;39.014;2023-04-16T08:00:51;11.75;;;5.35;;
64487;SDS011;50864;45.050;39.014;2023-04-16T08:03:18;13.13;;;6.18;;
64487;SDS011;50864;45.050;39.014;2023-04-16T08:05:43;8.70;;;5.07;;
64487;SDS011;50864;45.050;39.014;2023-04-16T08:08:09;11.48;;;5.43;;
64487;SDS011;50864;45.050;39.014;2023-04-16T08:10:36;9.27;;;4.80;;
64487;SDS011;50864;45.050;39.014;2023-04-16T08:13:03;10.38;;;6.00;;
64487;SDS011;50864;45.050;39.014;2023-04-16T08:15:29;9.23;;;4.45;;
64487;SDS011;50864;45.050;39.014;2023-04-16T08:17:55;11.27;;;5.15;;
64487;SDS011;50864;45.050;39.014;2023-04-16T08:20:21;7.57;;;4.80;;
64487;SDS011;50864;45.050;39.014;2023-04-16T08:22:47;11.93;;;5.35;;
64487;SDS011;50864;45.050;39.014;2023-04-16T08:25:13;10.43;;;5.53;;
64487;SDS011;50864;45.050;39.014;2023-04-16T08:27:39;9.48;;;5.05;;
64487;SDS011;50864;45.050;39.014;2023-04-16T08:30:06;7.43;;;4.68;;
64487;SDS011;50864;45.050;39.014;2023-04-16T08:32:32;8.38;;;4.87;;
64487;SDS011;50864;45.050;39.014;2023-04-16T08:34:58;10.43;;;5.15;;
64487;SDS011;50864;45.050;39.014;2023-04-16T08:37:24;8.98;;;4.87;;
64487;SDS011;50864;45.050;39.014;2023-04-16T08:39:50;8.30;;;5.40;;
64487;SDS011;50864;45.050;39.014;2023-04-16T08:42:29;10.27;;;4.97;;
64487;SDS011;50864;45.050;39.014;2023-04-16T08:45:05;8.30;;;4.03;;
64487;SDS011;50864;45.050;39.014;2023-04-16T08:47:52;9.80;;;4.32;;
64487;SDS011;50864;45.050;39.014;2023-04-16T08:50:22;8.25;;;5.18;;
64487;SDS011;50864;45.050;39.014;2023-04-16T08:52:51;7.30;;;3.67;;
64487;SDS011;50864;45.050;39.014;2023-04-16T08:55:18;8.68;;;3.53;;
64487;SDS011;50864;45.050;39.014;2023-04-16T08:57:56;9.27;;;4.15;;
64487;SDS011;50864;45.050;39.014;2023-04-16T09:00:22;8.50;;;3.47;;
64487;SDS011;50864;45.050;39.014;2023-04-16T09:02:49;8.00;;;4.22;;
64487;SDS011;50864;45.050;39.014;2023-04-16T09:05:16;6.72;;;3.50;;
64487;SDS011;50864;45.050;39.014;2023-04-16T09:07:45;9.45;;;5.57;;
64487;SDS011;50864;45.050;39.014;2023-04-16T09:10:15;46.75;;;29.85;;
64487;SDS011;50864;45.050;39.014;2023-04-16T09:12:43;40.67;;;13.60;;
64487;SDS011;50864;45.050;39.014;2023-04-16T09:15:09;11.77;;;6.15;;
64487;SDS011;50864;45.050;39.014;2023-04-16T09:17:36;9.00;;;4.37;;
64487;SDS011;50864;45.050;39.014;2023-04-16T09:20:02;9.60;;;5.80;;
64487;SDS011;50864;45.050;39.014;2023-04-16T09:22:31;6.25;;;3.70;;
64487;SDS011;50864;45.050;39.014;2023-04-16T09:24:57;7.55;;;4.05;;
64487;SDS011;50864;45.050;39.014;2023-04-16T09:27:22;9.77;;;6.32;;
64487;SDS011;50864;45.050;39.014;2023-04-16T09:29:50;11.02;;;4.78;;
64487;SDS011;50864;45.050;39.014;2023-04-16T09:32:16;36.53;;;20.05;;
64487;SDS011;50864;45.050;39.014;2023-04-16T09:34:55;7.45;;;4.37;;
64487;SDS011;50864;45.050;39.014;2023-04-16T09:37:22;23.70;;;14.85;;
64487;SDS011;50864;45.050;39.014;2023-04-16T09:39:55;8.85;;;4.93;;
64487;SDS011;50864;45.050;39.014;2023-04-16T09:42:22;8.55;;;4.22;;
64487;SDS011;50864;45.050;39.014;2023-04-16T09:44:48;7.32;;;3.50;;
64487;SDS011;50864;45.050;39.014;2023-04-16T09:47:14;11.23;;;3.30;;
64487;SDS011;50864;45.050;39.014;2023-04-16T09:49:40;6.85;;;4.32;;
64487;SDS011;50864;45.050;39.014;2023-04-16T09:52:17;10.95;;;3.87;;
64487;SDS011;50864;45.050;39.014;2023-04-16T09:54:50;7.55;;;3.62;;
64487;SDS011;50864;45.050;39.014;2023-04-16T09:57:17;11.52;;;3.80;;
64487;SDS011;50864;45.050;39.014;2023-04-16T09:59:45;10.85;;;5.03;;
64487;SDS011;50864;45.050;39.014;2023-04-16T10:02:11;8.32;;;4.20;;
64487;SDS011;50864;45.050;39.014;2023-04-16T10:04:47;9.70;;;4.10;;
64487;SDS011;50864;45.050;39.014;2023-04-16T10:07:13;6.87;;;4.00;;
64487;SDS011;50864;45.050;39.014;2023-04-16T10:09:39;9.43;;;3.95;;
64487;SDS011;50864;45.050;39.014;2023-04-16T10:12:06;8.20;;;3.42;;
64487;SDS011;50864;45.050;39.014;2023-04-16T10:14:37;7.28;;;3.33;;
64487;SDS011;50864;45.050;39.014;2023-04-16T10:17:03;11.27;;;3.72;;
64487;SDS011;50864;45.050;39.014;2023-04-16T10:19:30;9.65;;;3.53;;
64487;SDS011;50864;45.050;39.014;2023-04-16T10:22:02;6.10;;;3.50;;
64487;SDS011;50864;45.050;39.014;2023-04-16T10:24:29;8.90;;;4.07;;
64487;SDS011;50864;45.050;39.014;2023-04-16T10:26:55;7.62;;;3.35;;
64487;SDS011;50864;45.050;39.014;2023-04-16T10:29:21;8.77;;;3.22;;
64487;SDS011;50864;45.050;39.014;2023-04-16T10:31:48;9.43;;;3.62;;
64487;SDS011;50864;45.050;39.014;2023-04-16T10:34:14;10.38;;;3.20;;
64487;SDS011;50864;45.050;39.014;2023-04-16T10:36:40;8.65;;;3.67;;
64487;SDS011;50864;45.050;39.014;2023-04-16T10:39:10;7.10;;;3.80;;
64487;SDS011;50864;45.050;39.014;2023-04-16T10:41:36;8.05;;;3.35;;
64487;SDS011;50864;45.050;39.014;2023-04-16T10:44:06;10.27;;;3.80;;
64487;SDS011;50864;45.050;39.014;2023-04-16T10:46:38;12.53;;;3.73;;
64487;SDS011;50864;45.050;39.014;2023-04-16T10:51:40;10.02;;;4.28;;
64487;SDS011;50864;45.050;39.014;2023-04-16T10:56:36;5.62;;;3.60;;
64487;SDS011;50864;45.050;39.014;2023-04-16T10:59:03;8.05;;;2.97;;
64487;SDS011;50864;45.050;39.014;2023-04-16T11:03:56;6.40;;;2.97;;
64487;SDS011;50864;45.050;39.014;2023-04-16T11:06:23;7.55;;;3.70;;
64487;SDS011;50864;45.050;39.014;2023-04-16T11:08:50;7.57;;;2.87;;
64487;SDS011;50864;45.050;39.014;2023-04-16T11:11:17;7.07;;;3.10;;
64487;SDS011;50864;45.050;39.014;2023-04-16T11:13:43;7.78;;;2.97;;
64487;SDS011;50864;45.050;39.014;2023-04-16T11:16:10;8.25;;;3.00;;
64487;SDS011;50864;45.050;39.014;2023-04-16T11:18:37;9.35;;;3.30;;
64487;SDS011;50864;45.050;39.014;2023-04-16T11:21:08;7.10;;;3.55;;
64487;SDS011;50864;45.050;39.014;2023-04-16T11:23:47;10.07;;;3.37;;
64487;SDS011;50864;45.050;39.014;2023-04-16T11:26:22;7.55;;;3.80;;
64487;SDS011;50864;45.050;39.014;2023-04-16T11:29:12;7.65;;;4.78;;
64487;SDS011;50864;45.050;39.014;2023-04-16T11:32:05;14.50;;;8.57;;
64487;SDS011;50864;45.050;39.014;2023-04-16T11:34:31;30.02;;;15.40;;
64487;SDS011;50864;45.050;39.014;2023-04-16T11:36:57;43.92;;;27.95;;
64487;SDS011;50864;45.050;39.014;2023-04-16T11:39:23;40.38;;;26.67;;
64487;SDS011;50864;45.050;39.014;2023-04-16T11:41:49;24.67;;;15.27;;
64487;SDS011;50864;45.050;39.014;2023-04-16T11:46:42;8.95;;;4.22;;
64487;SDS011;50864;45.050;39.014;2023-04-16T11:49:08;13.00;;;4.95;;
64487;SDS011;50864;45.050;39.014;2023-04-16T11:51:41;6.57;;;3.75;;
64487;SDS011;50864;45.050;39.014;2023-04-16T11:56:33;6.55;;;3.50;;
64487;SDS011;50864;45.050;39.014;2023-04-16T11:59:06;8.38;;;3.60;;
64487;SDS011;50864;45.050;39.014;2023-04-16T12:01:35;7.75;;;4.10;;
64487;SDS011;50864;45.050;39.014;2023-04-16T12:04:01;9.15;;;3.55;;
64487;SDS011;50864;45.050;39.014;2023-04-16T12:06:27;11.07;;;4.05;;
64487;SDS011;50864;45.050;39.014;2023-04-16T12:08:53;11.40;;;4.07;;
64487;SDS011;50864;45.050;39.014;2023-04-16T12:11:19;7.60;;;4.15;;
64487;SDS011;50864;45.050;39.014;2023-04-16T12:16:30;7.78;;;3.40;;
64487;SDS011;50864;45.050;39.014;2023-04-16T12:18:59;8.15;;;2.92;;
64487;SDS011;50864;45.050;39.014;2023-04-16T12:21:34;11.48;;;3.55;;
64487;SDS011;50864;45.050;39.014;2023-04-16T12:24:00;8.30;;;4.30;;
64487;SDS011;50864;45.050;39.014;2023-04-16T12:26:26;13.40;;;3.92;;
64487;SDS011;50864;45.050;39.014;2023-04-16T12:28:51;10.27;;;4.25;;
64487;SDS011;50864;45.050;39.014;2023-04-16T12:31:19;8.70;;;3.17;;
64487;SDS011;50864;45.050;39.014;2023-04-16T12:34:01;6.10;;;3.12;;
64487;SDS011;50864;45.050;39.014;2023-04-16T12:36:27;6.78;;;3.67;;
64487;SDS011;50864;45.050;39.014;2023-04-16T12:38:53;9.00;;;3.50;;
64487;SDS011;50864;45.050;39.014;2023-04-16T12:41:18;8.45;;;3.92;;
64487;SDS011;50864;45.050;39.014;2023-04-16T12:43:44;6.07;;;3.20;;
64487;SDS011;50864;45.050;39.014;2023-04-16T12:46:10;6.50;;;3.87;;
64487;SDS011;50864;45.050;39.014;2023-04-16T12:48:36;8.50;;;4.00;;
64487;SDS011;50864;45.050;39.014;2023-04-16T12:51:02;11.82;;;4.30;;
64487;SDS011;50864;45.050;39.014;2023-04-16T12:53:28;9.15;;;4.30;;
64487;SDS011;50864;45.050;39.014;2023-04-16T12:55:53;15.95;;;4.80;;
64487;SDS011;50864;45.050;39.014;2023-04-16T12:58:19;10.20;;;4.93;;
64487;SDS011;50864;45.050;39.014;2023-04-16T13:00:45;8.32;;;3.50;;
64487;SDS011;50864;45.050;39.014;2023-04-16T13:03:11;7.97;;;3.58;;
64487;SDS011;50864;45.050;39.014;2023-04-16T13:05:37;8.52;;;5.25;;
64487;SDS011;50864;45.050;39.014;2023-04-16T13:08:02;6.22;;;3.42;;
64487;SDS011;50864;45.050;39.014;2023-04-16T13:10:28;12.70;;;5.57;;
64487;SDS011;50864;45.050;39.014;2023-04-16T13:12:54;9.77;;;3.50;;
64487;SDS011;50864;45.050;39.014;2023-04-16T13:15:20;11.93;;;3.60;;
64487;SDS011;50864;45.050;39.014;2023-04-16T13:17:47;16.40;;;4.20;;
64487;SDS011;50864;45.050;39.014;2023-04-16T13:20:13;8.18;;;3.90;;
64487;SDS011;50864;45.050;39.014;2023-04-16T13:22:39;13.43;;;3.90;;
64487;SDS011;50864;45.050;39.014;2023-04-16T13:25:04;7.93;;;3.15;;
64487;SDS011;50864;45.050;39.014;2023-04-16T13:27:31;4.65;;;2.70;;
64487;SDS011;50864;45.050;39.014;2023-04-16T13:29:56;6.82;;;3.55;;
64487;SDS011;50864;45.050;39.014;2023-04-16T13:32:22;8.63;;;3.55;;
64487;SDS011;50864;45.050;39.014;2023-04-16T13:34:48;6.65;;;3.97;;
64487;SDS011;50864;45.050;39.014;2023-04-16T13:37:14;11.18;;;4.93;;
64487;SDS011;50864;45.050;39.014;2023-04-16T13:39:40;10.77;;;5.93;;
64487;SDS011;50864;45.050;39.014;2023-04-16T13:42:06;7.43;;;4.68;;
64487;SDS011;50864;45.050;39.014;2023-04-16T13:44:31;8.95;;;5.43;;
64487;SDS011;50864;45.050;39.014;2023-04-16T13:47:18;7.03;;;3.65;;
64487;SDS011;50864;45.050;39.014;2023-04-16T13:49:44;10.48;;;5.50;;
64487;SDS011;50864;45.050;39.014;2023-04-16T13:52:10;7.50;;;3.67;;
64487;SDS011;50864;45.050;39.014;2023-04-16T13:54:35;6.97;;;4.03;;
64487;SDS011;50864;45.050;39.014;2023-04-16T13:57:01;9.07;;;4.53;;
64487;SDS011;50864;45.050;39.014;2023-04-16T13:59:27;7.45;;;4.00;;
64487;SDS011;50864;45.050;39.014;2023-04-16T14:01:53;7.57;;;3.87;;
64487;SDS011;50864;45.050;39.014;2023-04-16T14:04:19;9.68;;;3.58;;
64487;SDS011;50864;45.050;39.014;2023-04-16T14:06:47;7.57;;;3.40;;
64487;SDS011;50864;45.050;39.014;2023-04-16T14:09:35;6.12;;;2.95;;
64487;SDS011;50864;45.050;39.014;2023-04-16T14:12:04;8.60;;;4.40;;
64487;SDS011;50864;45.050;39.014;2023-04-16T14:14:35;8.93;;;3.60;;
64487;SDS011;50864;45.050;39.014;2023-04-16T14:17:01;8.98;;;3.40;;
64487;SDS011;50864;45.050;39.014;2023-04-16T14:19:27;4.95;;;3.12;;
64487;SDS011;50864;45.050;39.014;2023-04-16T14:21:53;9.90;;;3.92;;
64487;SDS011;50864;45.050;39.014;2023-04-16T14:24:19;7.53;;;3.28;;
64487;SDS011;50864;45.050;39.014;2023-04-16T14:26:44;6.45;;;3.33;;
64487;SDS011;50864;45.050;39.014;2023-04-16T14:29:10;7.60;;;3.47;;
64487;SDS011;50864;45.050;39.014;2023-04-16T14:31:36;7.57;;;3.60;;
64487;SDS011;50864;45.050;39.014;2023-04-16T14:34:02;7.97;;;3.15;;
64487;SDS011;50864;45.050;39.014;2023-04-16T14:36:28;5.65;;;3.30;;
64487;SDS011;50864;45.050;39.014;2023-04-16T14:38:55;7.30;;;4.10;;
64487;SDS011;50864;45.050;39.014;2023-04-16T14:41:21;11.18;;;4.20;;
64487;SDS011;50864;45.050;39.014;2023-04-16T14:43:47;7.55;;;3.78;;
64487;SDS011;50864;45.050;39.014;2023-04-16T14:46:13;7.37;;;3.92;;